<?xml version="1.0" encoding="UTF-8" standalone="no" ?>
<gpx xmlns="http://www.topografix.com/GPX/1/1" xmlns:xsi="http://www.w3.org/2001/XMLSchema-instance" xsi:schemaLocation="http://www.topografix.com/GPX/1/1 http://www.topografix.com/GPX/1/1/gpx.xsd" version="1.1" creator="VisuGPX - https://www.visugpx.com">
  <metadata>
    <name>Vesqueville Marche ADEPS 2018 (févr)</name>
    <desc><![CDATA[Marche sympa pour se ressourcé ]]></desc>
  </metadata>
  <trk>
    <name><![CDATA[St hubert]]></name>
    <trkseg>
      <trkpt lat="50.01947" lon="5.36096">
        <ele>333</ele>
        <time>2018-02-18T09:38:25Z</time>
      </trkpt>
      <trkpt lat="50.01945" lon="5.36092">
        <ele>333</ele>
        <time>2018-02-18T09:38:35Z</time>
      </trkpt>
      <trkpt lat="50.01938" lon="5.36081">
        <ele>333</ele>
        <time>2018-02-18T09:38:45Z</time>
      </trkpt>
      <trkpt lat="50.01931" lon="5.36067">
        <ele>333</ele>
        <time>2018-02-18T09:38:55Z</time>
      </trkpt>
      <trkpt lat="50.01921" lon="5.36048">
        <ele>332</ele>
        <time>2018-02-18T09:39:06Z</time>
      </trkpt>
      <trkpt lat="50.01913" lon="5.3603">
        <ele>330</ele>
        <time>2018-02-18T09:39:16Z</time>
      </trkpt>
      <trkpt lat="50.01904" lon="5.36015">
        <ele>330</ele>
        <time>2018-02-18T09:39:26Z</time>
      </trkpt>
      <trkpt lat="50.01896" lon="5.36">
        <ele>328</ele>
        <time>2018-02-18T09:39:36Z</time>
      </trkpt>
      <trkpt lat="50.01888" lon="5.35984">
        <ele>328</ele>
        <time>2018-02-18T09:39:47Z</time>
      </trkpt>
      <trkpt lat="50.0188" lon="5.35976">
        <ele>327</ele>
        <time>2018-02-18T09:39:57Z</time>
      </trkpt>
      <trkpt lat="50.0188" lon="5.35977">
        <ele>328</ele>
        <time>2018-02-18T09:40:08Z</time>
      </trkpt>
      <trkpt lat="50.01879" lon="5.35977">
        <ele>327</ele>
        <time>2018-02-18T09:40:18Z</time>
      </trkpt>
      <trkpt lat="50.01879" lon="5.35976">
        <ele>327</ele>
        <time>2018-02-18T09:40:30Z</time>
      </trkpt>
      <trkpt lat="50.01878" lon="5.35977">
        <ele>328</ele>
        <time>2018-02-18T09:40:40Z</time>
      </trkpt>
      <trkpt lat="50.01878" lon="5.35977">
        <ele>328</ele>
        <time>2018-02-18T09:40:50Z</time>
      </trkpt>
      <trkpt lat="50.01878" lon="5.35977">
        <ele>328</ele>
        <time>2018-02-18T09:41:01Z</time>
      </trkpt>
      <trkpt lat="50.01875" lon="5.35968">
        <ele>327</ele>
        <time>2018-02-18T09:41:12Z</time>
      </trkpt>
      <trkpt lat="50.01869" lon="5.35954">
        <ele>326</ele>
        <time>2018-02-18T09:41:22Z</time>
      </trkpt>
      <trkpt lat="50.01862" lon="5.35939">
        <ele>326</ele>
        <time>2018-02-18T09:41:33Z</time>
      </trkpt>
      <trkpt lat="50.0185" lon="5.35928">
        <ele>325</ele>
        <time>2018-02-18T09:41:44Z</time>
      </trkpt>
      <trkpt lat="50.01839" lon="5.35922">
        <ele>325</ele>
        <time>2018-02-18T09:41:54Z</time>
      </trkpt>
      <trkpt lat="50.01826" lon="5.35921">
        <ele>325</ele>
        <time>2018-02-18T09:42:05Z</time>
      </trkpt>
      <trkpt lat="50.01817" lon="5.3592">
        <ele>324</ele>
        <time>2018-02-18T09:42:15Z</time>
      </trkpt>
      <trkpt lat="50.01812" lon="5.35903">
        <ele>324</ele>
        <time>2018-02-18T09:42:26Z</time>
      </trkpt>
      <trkpt lat="50.01809" lon="5.35883">
        <ele>323</ele>
        <time>2018-02-18T09:42:36Z</time>
      </trkpt>
      <trkpt lat="50.01806" lon="5.35862">
        <ele>322</ele>
        <time>2018-02-18T09:42:46Z</time>
      </trkpt>
      <trkpt lat="50.01805" lon="5.35839">
        <ele>322</ele>
        <time>2018-02-18T09:42:57Z</time>
      </trkpt>
      <trkpt lat="50.01804" lon="5.35818">
        <ele>322</ele>
        <time>2018-02-18T09:43:07Z</time>
      </trkpt>
      <trkpt lat="50.01804" lon="5.35797">
        <ele>322</ele>
        <time>2018-02-18T09:43:17Z</time>
      </trkpt>
      <trkpt lat="50.01804" lon="5.35773">
        <ele>321</ele>
        <time>2018-02-18T09:43:28Z</time>
      </trkpt>
      <trkpt lat="50.01806" lon="5.35753">
        <ele>320</ele>
        <time>2018-02-18T09:43:39Z</time>
      </trkpt>
      <trkpt lat="50.01808" lon="5.35736">
        <ele>319</ele>
        <time>2018-02-18T09:43:49Z</time>
      </trkpt>
      <trkpt lat="50.01813" lon="5.35717">
        <ele>319</ele>
        <time>2018-02-18T09:44:00Z</time>
      </trkpt>
      <trkpt lat="50.01817" lon="5.35699">
        <ele>319</ele>
        <time>2018-02-18T09:44:10Z</time>
      </trkpt>
      <trkpt lat="50.01823" lon="5.35682">
        <ele>319</ele>
        <time>2018-02-18T09:44:20Z</time>
      </trkpt>
      <trkpt lat="50.01833" lon="5.35667">
        <ele>319</ele>
        <time>2018-02-18T09:44:31Z</time>
      </trkpt>
      <trkpt lat="50.01844" lon="5.35654">
        <ele>318</ele>
        <time>2018-02-18T09:44:42Z</time>
      </trkpt>
      <trkpt lat="50.01855" lon="5.35649">
        <ele>317</ele>
        <time>2018-02-18T09:44:53Z</time>
      </trkpt>
      <trkpt lat="50.01868" lon="5.35643">
        <ele>316</ele>
        <time>2018-02-18T09:45:04Z</time>
      </trkpt>
      <trkpt lat="50.01879" lon="5.35634">
        <ele>316</ele>
        <time>2018-02-18T09:45:15Z</time>
      </trkpt>
      <trkpt lat="50.01891" lon="5.35631">
        <ele>315</ele>
        <time>2018-02-18T09:45:25Z</time>
      </trkpt>
      <trkpt lat="50.01905" lon="5.35633">
        <ele>315</ele>
        <time>2018-02-18T09:45:36Z</time>
      </trkpt>
      <trkpt lat="50.01918" lon="5.35637">
        <ele>315</ele>
        <time>2018-02-18T09:45:47Z</time>
      </trkpt>
      <trkpt lat="50.01926" lon="5.35641">
        <ele>314</ele>
        <time>2018-02-18T09:45:58Z</time>
      </trkpt>
      <trkpt lat="50.01929" lon="5.35642">
        <ele>315</ele>
        <time>2018-02-18T09:46:08Z</time>
      </trkpt>
      <trkpt lat="50.01939" lon="5.35648">
        <ele>314</ele>
        <time>2018-02-18T09:46:18Z</time>
      </trkpt>
      <trkpt lat="50.0195" lon="5.3566">
        <ele>313</ele>
        <time>2018-02-18T09:46:29Z</time>
      </trkpt>
      <trkpt lat="50.01962" lon="5.3567">
        <ele>313</ele>
        <time>2018-02-18T09:46:40Z</time>
      </trkpt>
      <trkpt lat="50.01973" lon="5.3568">
        <ele>312</ele>
        <time>2018-02-18T09:46:50Z</time>
      </trkpt>
      <trkpt lat="50.01986" lon="5.35691">
        <ele>311</ele>
        <time>2018-02-18T09:47:01Z</time>
      </trkpt>
      <trkpt lat="50.01999" lon="5.35702">
        <ele>311</ele>
        <time>2018-02-18T09:47:12Z</time>
      </trkpt>
      <trkpt lat="50.02008" lon="5.35711">
        <ele>311</ele>
        <time>2018-02-18T09:47:23Z</time>
      </trkpt>
      <trkpt lat="50.0202" lon="5.3572">
        <ele>310</ele>
        <time>2018-02-18T09:47:34Z</time>
      </trkpt>
      <trkpt lat="50.02032" lon="5.35729">
        <ele>310</ele>
        <time>2018-02-18T09:47:45Z</time>
      </trkpt>
      <trkpt lat="50.02045" lon="5.35738">
        <ele>309</ele>
        <time>2018-02-18T09:47:55Z</time>
      </trkpt>
      <trkpt lat="50.02057" lon="5.35748">
        <ele>309</ele>
        <time>2018-02-18T09:48:06Z</time>
      </trkpt>
      <trkpt lat="50.0207" lon="5.35759">
        <ele>308</ele>
        <time>2018-02-18T09:48:17Z</time>
      </trkpt>
      <trkpt lat="50.02082" lon="5.35769">
        <ele>308</ele>
        <time>2018-02-18T09:48:28Z</time>
      </trkpt>
      <trkpt lat="50.02094" lon="5.35779">
        <ele>307</ele>
        <time>2018-02-18T09:48:39Z</time>
      </trkpt>
      <trkpt lat="50.02105" lon="5.3579">
        <ele>307</ele>
        <time>2018-02-18T09:48:49Z</time>
      </trkpt>
      <trkpt lat="50.02118" lon="5.35801">
        <ele>306</ele>
        <time>2018-02-18T09:49:00Z</time>
      </trkpt>
      <trkpt lat="50.02131" lon="5.35812">
        <ele>305</ele>
        <time>2018-02-18T09:49:11Z</time>
      </trkpt>
      <trkpt lat="50.0214" lon="5.35824">
        <ele>305</ele>
        <time>2018-02-18T09:49:21Z</time>
      </trkpt>
      <trkpt lat="50.02152" lon="5.35834">
        <ele>304</ele>
        <time>2018-02-18T09:49:32Z</time>
      </trkpt>
      <trkpt lat="50.02163" lon="5.35845">
        <ele>304</ele>
        <time>2018-02-18T09:49:42Z</time>
      </trkpt>
      <trkpt lat="50.02174" lon="5.35857">
        <ele>304</ele>
        <time>2018-02-18T09:49:53Z</time>
      </trkpt>
      <trkpt lat="50.02182" lon="5.35866">
        <ele>303</ele>
        <time>2018-02-18T09:50:03Z</time>
      </trkpt>
      <trkpt lat="50.02194" lon="5.35881">
        <ele>302</ele>
        <time>2018-02-18T09:50:14Z</time>
      </trkpt>
      <trkpt lat="50.02204" lon="5.35894">
        <ele>302</ele>
        <time>2018-02-18T09:50:24Z</time>
      </trkpt>
      <trkpt lat="50.02214" lon="5.3591">
        <ele>302</ele>
        <time>2018-02-18T09:50:35Z</time>
      </trkpt>
      <trkpt lat="50.02223" lon="5.35924">
        <ele>301</ele>
        <time>2018-02-18T09:50:45Z</time>
      </trkpt>
      <trkpt lat="50.02232" lon="5.35941">
        <ele>301</ele>
        <time>2018-02-18T09:50:56Z</time>
      </trkpt>
      <trkpt lat="50.02242" lon="5.35955">
        <ele>300</ele>
        <time>2018-02-18T09:51:07Z</time>
      </trkpt>
      <trkpt lat="50.0225" lon="5.35947">
        <ele>299</ele>
        <time>2018-02-18T09:51:17Z</time>
      </trkpt>
      <trkpt lat="50.02248" lon="5.35923">
        <ele>299</ele>
        <time>2018-02-18T09:51:28Z</time>
      </trkpt>
      <trkpt lat="50.02246" lon="5.35902">
        <ele>298</ele>
        <time>2018-02-18T09:51:38Z</time>
      </trkpt>
      <trkpt lat="50.02244" lon="5.3588">
        <ele>297</ele>
        <time>2018-02-18T09:51:49Z</time>
      </trkpt>
      <trkpt lat="50.02241" lon="5.3586">
        <ele>297</ele>
        <time>2018-02-18T09:51:59Z</time>
      </trkpt>
      <trkpt lat="50.02237" lon="5.35842">
        <ele>297</ele>
        <time>2018-02-18T09:52:09Z</time>
      </trkpt>
      <trkpt lat="50.02233" lon="5.35821">
        <ele>297</ele>
        <time>2018-02-18T09:52:20Z</time>
      </trkpt>
      <trkpt lat="50.02228" lon="5.358">
        <ele>296</ele>
        <time>2018-02-18T09:52:31Z</time>
      </trkpt>
      <trkpt lat="50.02222" lon="5.35782">
        <ele>296</ele>
        <time>2018-02-18T09:52:41Z</time>
      </trkpt>
      <trkpt lat="50.02216" lon="5.35762">
        <ele>296</ele>
        <time>2018-02-18T09:52:52Z</time>
      </trkpt>
      <trkpt lat="50.02209" lon="5.35745">
        <ele>295</ele>
        <time>2018-02-18T09:53:02Z</time>
      </trkpt>
      <trkpt lat="50.02202" lon="5.35725">
        <ele>295</ele>
        <time>2018-02-18T09:53:13Z</time>
      </trkpt>
      <trkpt lat="50.02195" lon="5.35708">
        <ele>294</ele>
        <time>2018-02-18T09:53:23Z</time>
      </trkpt>
      <trkpt lat="50.02187" lon="5.35689">
        <ele>294</ele>
        <time>2018-02-18T09:53:34Z</time>
      </trkpt>
      <trkpt lat="50.02181" lon="5.35672">
        <ele>294</ele>
        <time>2018-02-18T09:53:44Z</time>
      </trkpt>
      <trkpt lat="50.02173" lon="5.35652">
        <ele>293</ele>
        <time>2018-02-18T09:53:55Z</time>
      </trkpt>
      <trkpt lat="50.02166" lon="5.35636">
        <ele>293</ele>
        <time>2018-02-18T09:54:05Z</time>
      </trkpt>
      <trkpt lat="50.0216" lon="5.35616">
        <ele>293</ele>
        <time>2018-02-18T09:54:16Z</time>
      </trkpt>
      <trkpt lat="50.02153" lon="5.35598">
        <ele>293</ele>
        <time>2018-02-18T09:54:26Z</time>
      </trkpt>
      <trkpt lat="50.02146" lon="5.35581">
        <ele>292</ele>
        <time>2018-02-18T09:54:36Z</time>
      </trkpt>
      <trkpt lat="50.02139" lon="5.35562">
        <ele>291</ele>
        <time>2018-02-18T09:54:47Z</time>
      </trkpt>
      <trkpt lat="50.02131" lon="5.35546">
        <ele>291</ele>
        <time>2018-02-18T09:54:57Z</time>
      </trkpt>
      <trkpt lat="50.02124" lon="5.35525">
        <ele>291</ele>
        <time>2018-02-18T09:55:08Z</time>
      </trkpt>
      <trkpt lat="50.02116" lon="5.35505">
        <ele>290</ele>
        <time>2018-02-18T09:55:19Z</time>
      </trkpt>
      <trkpt lat="50.02109" lon="5.35485">
        <ele>290</ele>
        <time>2018-02-18T09:55:30Z</time>
      </trkpt>
      <trkpt lat="50.02102" lon="5.35467">
        <ele>290</ele>
        <time>2018-02-18T09:55:40Z</time>
      </trkpt>
      <trkpt lat="50.02096" lon="5.3545">
        <ele>290</ele>
        <time>2018-02-18T09:55:50Z</time>
      </trkpt>
      <trkpt lat="50.02088" lon="5.35432">
        <ele>289</ele>
        <time>2018-02-18T09:56:01Z</time>
      </trkpt>
      <trkpt lat="50.02082" lon="5.35414">
        <ele>288</ele>
        <time>2018-02-18T09:56:11Z</time>
      </trkpt>
      <trkpt lat="50.02074" lon="5.35394">
        <ele>288</ele>
        <time>2018-02-18T09:56:22Z</time>
      </trkpt>
      <trkpt lat="50.02068" lon="5.35373">
        <ele>287</ele>
        <time>2018-02-18T09:56:33Z</time>
      </trkpt>
      <trkpt lat="50.02061" lon="5.35355">
        <ele>286</ele>
        <time>2018-02-18T09:56:44Z</time>
      </trkpt>
      <trkpt lat="50.02055" lon="5.35335">
        <ele>285</ele>
        <time>2018-02-18T09:56:55Z</time>
      </trkpt>
      <trkpt lat="50.02051" lon="5.35316">
        <ele>284</ele>
        <time>2018-02-18T09:57:05Z</time>
      </trkpt>
      <trkpt lat="50.02047" lon="5.35294">
        <ele>284</ele>
        <time>2018-02-18T09:57:16Z</time>
      </trkpt>
      <trkpt lat="50.02045" lon="5.35275">
        <ele>282</ele>
        <time>2018-02-18T09:57:26Z</time>
      </trkpt>
      <trkpt lat="50.02044" lon="5.35252">
        <ele>281</ele>
        <time>2018-02-18T09:57:37Z</time>
      </trkpt>
      <trkpt lat="50.02046" lon="5.35229">
        <ele>280</ele>
        <time>2018-02-18T09:57:48Z</time>
      </trkpt>
      <trkpt lat="50.02048" lon="5.35209">
        <ele>279</ele>
        <time>2018-02-18T09:57:58Z</time>
      </trkpt>
      <trkpt lat="50.02053" lon="5.35187">
        <ele>278</ele>
        <time>2018-02-18T09:58:09Z</time>
      </trkpt>
      <trkpt lat="50.02057" lon="5.35167">
        <ele>277</ele>
        <time>2018-02-18T09:58:20Z</time>
      </trkpt>
      <trkpt lat="50.0206" lon="5.35147">
        <ele>276</ele>
        <time>2018-02-18T09:58:30Z</time>
      </trkpt>
      <trkpt lat="50.02064" lon="5.35126">
        <ele>274</ele>
        <time>2018-02-18T09:58:40Z</time>
      </trkpt>
      <trkpt lat="50.02067" lon="5.35105">
        <ele>273</ele>
        <time>2018-02-18T09:58:50Z</time>
      </trkpt>
      <trkpt lat="50.0207" lon="5.35085">
        <ele>272</ele>
        <time>2018-02-18T09:59:00Z</time>
      </trkpt>
      <trkpt lat="50.02074" lon="5.35063">
        <ele>270</ele>
        <time>2018-02-18T09:59:11Z</time>
      </trkpt>
      <trkpt lat="50.02076" lon="5.3504">
        <ele>269</ele>
        <time>2018-02-18T09:59:22Z</time>
      </trkpt>
      <trkpt lat="50.02076" lon="5.35019">
        <ele>269</ele>
        <time>2018-02-18T09:59:32Z</time>
      </trkpt>
      <trkpt lat="50.02075" lon="5.34998">
        <ele>267</ele>
        <time>2018-02-18T09:59:42Z</time>
      </trkpt>
      <trkpt lat="50.0207" lon="5.34976">
        <ele>266</ele>
        <time>2018-02-18T09:59:53Z</time>
      </trkpt>
      <trkpt lat="50.02065" lon="5.34956">
        <ele>266</ele>
        <time>2018-02-18T10:00:04Z</time>
      </trkpt>
      <trkpt lat="50.0206" lon="5.34937">
        <ele>265</ele>
        <time>2018-02-18T10:00:14Z</time>
      </trkpt>
      <trkpt lat="50.02056" lon="5.34917">
        <ele>264</ele>
        <time>2018-02-18T10:00:25Z</time>
      </trkpt>
      <trkpt lat="50.02052" lon="5.34903">
        <ele>264</ele>
        <time>2018-02-18T10:00:35Z</time>
      </trkpt>
      <trkpt lat="50.02047" lon="5.34887">
        <ele>263</ele>
        <time>2018-02-18T10:00:45Z</time>
      </trkpt>
      <trkpt lat="50.02042" lon="5.34866">
        <ele>262</ele>
        <time>2018-02-18T10:00:56Z</time>
      </trkpt>
      <trkpt lat="50.02038" lon="5.34845">
        <ele>260</ele>
        <time>2018-02-18T10:01:07Z</time>
      </trkpt>
      <trkpt lat="50.02037" lon="5.34825">
        <ele>260</ele>
        <time>2018-02-18T10:01:18Z</time>
      </trkpt>
      <trkpt lat="50.02038" lon="5.34805">
        <ele>259</ele>
        <time>2018-02-18T10:01:28Z</time>
      </trkpt>
      <trkpt lat="50.0204" lon="5.34783">
        <ele>258</ele>
        <time>2018-02-18T10:01:39Z</time>
      </trkpt>
      <trkpt lat="50.02045" lon="5.34764">
        <ele>257</ele>
        <time>2018-02-18T10:01:49Z</time>
      </trkpt>
      <trkpt lat="50.0205" lon="5.34746">
        <ele>257</ele>
        <time>2018-02-18T10:01:59Z</time>
      </trkpt>
      <trkpt lat="50.02056" lon="5.34726">
        <ele>255</ele>
        <time>2018-02-18T10:02:10Z</time>
      </trkpt>
      <trkpt lat="50.02062" lon="5.34708">
        <ele>255</ele>
        <time>2018-02-18T10:02:20Z</time>
      </trkpt>
      <trkpt lat="50.02067" lon="5.34687">
        <ele>254</ele>
        <time>2018-02-18T10:02:31Z</time>
      </trkpt>
      <trkpt lat="50.02073" lon="5.34665">
        <ele>253</ele>
        <time>2018-02-18T10:02:42Z</time>
      </trkpt>
      <trkpt lat="50.02077" lon="5.34647">
        <ele>252</ele>
        <time>2018-02-18T10:02:52Z</time>
      </trkpt>
      <trkpt lat="50.02084" lon="5.34626">
        <ele>252</ele>
        <time>2018-02-18T10:03:03Z</time>
      </trkpt>
      <trkpt lat="50.02089" lon="5.34607">
        <ele>251</ele>
        <time>2018-02-18T10:03:13Z</time>
      </trkpt>
      <trkpt lat="50.02095" lon="5.34586">
        <ele>251</ele>
        <time>2018-02-18T10:03:23Z</time>
      </trkpt>
      <trkpt lat="50.021" lon="5.34563">
        <ele>250</ele>
        <time>2018-02-18T10:03:34Z</time>
      </trkpt>
      <trkpt lat="50.02105" lon="5.34543">
        <ele>250</ele>
        <time>2018-02-18T10:03:44Z</time>
      </trkpt>
      <trkpt lat="50.02113" lon="5.34522">
        <ele>250</ele>
        <time>2018-02-18T10:03:55Z</time>
      </trkpt>
      <trkpt lat="50.02119" lon="5.34505">
        <ele>249</ele>
        <time>2018-02-18T10:04:05Z</time>
      </trkpt>
      <trkpt lat="50.02118" lon="5.34485">
        <ele>249</ele>
        <time>2018-02-18T10:04:15Z</time>
      </trkpt>
      <trkpt lat="50.02113" lon="5.34468">
        <ele>248</ele>
        <time>2018-02-18T10:04:25Z</time>
      </trkpt>
      <trkpt lat="50.02109" lon="5.34456">
        <ele>248</ele>
        <time>2018-02-18T10:04:37Z</time>
      </trkpt>
      <trkpt lat="50.02103" lon="5.34462">
        <ele>248</ele>
        <time>2018-02-18T10:04:48Z</time>
      </trkpt>
      <trkpt lat="50.02097" lon="5.34471">
        <ele>248</ele>
        <time>2018-02-18T10:04:58Z</time>
      </trkpt>
      <trkpt lat="50.02092" lon="5.34478">
        <ele>248</ele>
        <time>2018-02-18T10:05:09Z</time>
      </trkpt>
      <trkpt lat="50.02083" lon="5.34483">
        <ele>248</ele>
        <time>2018-02-18T10:05:20Z</time>
      </trkpt>
      <trkpt lat="50.02076" lon="5.34491">
        <ele>248</ele>
        <time>2018-02-18T10:05:30Z</time>
      </trkpt>
      <trkpt lat="50.02066" lon="5.34496">
        <ele>248</ele>
        <time>2018-02-18T10:05:41Z</time>
      </trkpt>
      <trkpt lat="50.02058" lon="5.34498">
        <ele>247</ele>
        <time>2018-02-18T10:05:51Z</time>
      </trkpt>
      <trkpt lat="50.02054" lon="5.34503">
        <ele>248</ele>
        <time>2018-02-18T10:06:02Z</time>
      </trkpt>
      <trkpt lat="50.02052" lon="5.34505">
        <ele>247</ele>
        <time>2018-02-18T10:06:13Z</time>
      </trkpt>
      <trkpt lat="50.02051" lon="5.34506">
        <ele>248</ele>
        <time>2018-02-18T10:06:23Z</time>
      </trkpt>
      <trkpt lat="50.0205" lon="5.34504">
        <ele>247</ele>
        <time>2018-02-18T10:06:34Z</time>
      </trkpt>
      <trkpt lat="50.0205" lon="5.34503">
        <ele>248</ele>
        <time>2018-02-18T10:06:45Z</time>
      </trkpt>
      <trkpt lat="50.02049" lon="5.34505">
        <ele>248</ele>
        <time>2018-02-18T10:06:55Z</time>
      </trkpt>
      <trkpt lat="50.0205" lon="5.34505">
        <ele>248</ele>
        <time>2018-02-18T10:07:06Z</time>
      </trkpt>
      <trkpt lat="50.02053" lon="5.34501">
        <ele>247</ele>
        <time>2018-02-18T10:07:16Z</time>
      </trkpt>
      <trkpt lat="50.02048" lon="5.34494">
        <ele>247</ele>
        <time>2018-02-18T10:07:27Z</time>
      </trkpt>
      <trkpt lat="50.02046" lon="5.34476">
        <ele>247</ele>
        <time>2018-02-18T10:07:38Z</time>
      </trkpt>
      <trkpt lat="50.02043" lon="5.34458">
        <ele>247</ele>
        <time>2018-02-18T10:07:48Z</time>
      </trkpt>
      <trkpt lat="50.02037" lon="5.34443">
        <ele>247</ele>
        <time>2018-02-18T10:07:58Z</time>
      </trkpt>
      <trkpt lat="50.02032" lon="5.34447">
        <ele>247</ele>
        <time>2018-02-18T10:08:08Z</time>
      </trkpt>
      <trkpt lat="50.02029" lon="5.34455">
        <ele>247</ele>
        <time>2018-02-18T10:08:19Z</time>
      </trkpt>
      <trkpt lat="50.02019" lon="5.34461">
        <ele>247</ele>
        <time>2018-02-18T10:08:30Z</time>
      </trkpt>
      <trkpt lat="50.02011" lon="5.34471">
        <ele>248</ele>
        <time>2018-02-18T10:08:41Z</time>
      </trkpt>
      <trkpt lat="50.02004" lon="5.34471">
        <ele>248</ele>
        <time>2018-02-18T10:08:52Z</time>
      </trkpt>
      <trkpt lat="50.01998" lon="5.34473">
        <ele>249</ele>
        <time>2018-02-18T10:09:02Z</time>
      </trkpt>
      <trkpt lat="50.01996" lon="5.34479">
        <ele>249</ele>
        <time>2018-02-18T10:09:13Z</time>
      </trkpt>
      <trkpt lat="50.01989" lon="5.34484">
        <ele>250</ele>
        <time>2018-02-18T10:09:24Z</time>
      </trkpt>
      <trkpt lat="50.01979" lon="5.34488">
        <ele>252</ele>
        <time>2018-02-18T10:09:34Z</time>
      </trkpt>
      <trkpt lat="50.01967" lon="5.34491">
        <ele>253</ele>
        <time>2018-02-18T10:09:45Z</time>
      </trkpt>
      <trkpt lat="50.01958" lon="5.34491">
        <ele>254</ele>
        <time>2018-02-18T10:09:55Z</time>
      </trkpt>
      <trkpt lat="50.01945" lon="5.34493">
        <ele>255</ele>
        <time>2018-02-18T10:10:06Z</time>
      </trkpt>
      <trkpt lat="50.0193" lon="5.34492">
        <ele>256</ele>
        <time>2018-02-18T10:10:17Z</time>
      </trkpt>
      <trkpt lat="50.01919" lon="5.34486">
        <ele>256</ele>
        <time>2018-02-18T10:10:28Z</time>
      </trkpt>
      <trkpt lat="50.01911" lon="5.34479">
        <ele>258</ele>
        <time>2018-02-18T10:10:38Z</time>
      </trkpt>
      <trkpt lat="50.01904" lon="5.34473">
        <ele>259</ele>
        <time>2018-02-18T10:10:49Z</time>
      </trkpt>
      <trkpt lat="50.01898" lon="5.34466">
        <ele>261</ele>
        <time>2018-02-18T10:10:59Z</time>
      </trkpt>
      <trkpt lat="50.0189" lon="5.3446">
        <ele>263</ele>
        <time>2018-02-18T10:11:09Z</time>
      </trkpt>
      <trkpt lat="50.01884" lon="5.34456">
        <ele>264</ele>
        <time>2018-02-18T10:11:20Z</time>
      </trkpt>
      <trkpt lat="50.01871" lon="5.34458">
        <ele>264</ele>
        <time>2018-02-18T10:11:31Z</time>
      </trkpt>
      <trkpt lat="50.0186" lon="5.34462">
        <ele>266</ele>
        <time>2018-02-18T10:11:41Z</time>
      </trkpt>
      <trkpt lat="50.01852" lon="5.34466">
        <ele>266</ele>
        <time>2018-02-18T10:11:51Z</time>
      </trkpt>
      <trkpt lat="50.01845" lon="5.34473">
        <ele>267</ele>
        <time>2018-02-18T10:12:02Z</time>
      </trkpt>
      <trkpt lat="50.01837" lon="5.34479">
        <ele>269</ele>
        <time>2018-02-18T10:12:13Z</time>
      </trkpt>
      <trkpt lat="50.01827" lon="5.34484">
        <ele>268</ele>
        <time>2018-02-18T10:12:24Z</time>
      </trkpt>
      <trkpt lat="50.01816" lon="5.34487">
        <ele>267</ele>
        <time>2018-02-18T10:12:34Z</time>
      </trkpt>
      <trkpt lat="50.01804" lon="5.34489">
        <ele>267</ele>
        <time>2018-02-18T10:12:45Z</time>
      </trkpt>
      <trkpt lat="50.01794" lon="5.34487">
        <ele>266</ele>
        <time>2018-02-18T10:12:55Z</time>
      </trkpt>
      <trkpt lat="50.01781" lon="5.34487">
        <ele>266</ele>
        <time>2018-02-18T10:13:06Z</time>
      </trkpt>
      <trkpt lat="50.01767" lon="5.34485">
        <ele>265</ele>
        <time>2018-02-18T10:13:17Z</time>
      </trkpt>
      <trkpt lat="50.01756" lon="5.34483">
        <ele>266</ele>
        <time>2018-02-18T10:13:27Z</time>
      </trkpt>
      <trkpt lat="50.01744" lon="5.34478">
        <ele>267</ele>
        <time>2018-02-18T10:13:38Z</time>
      </trkpt>
      <trkpt lat="50.01737" lon="5.34474">
        <ele>267</ele>
        <time>2018-02-18T10:13:48Z</time>
      </trkpt>
      <trkpt lat="50.01731" lon="5.34473">
        <ele>267</ele>
        <time>2018-02-18T10:13:59Z</time>
      </trkpt>
      <trkpt lat="50.01724" lon="5.34474">
        <ele>267</ele>
        <time>2018-02-18T10:14:09Z</time>
      </trkpt>
      <trkpt lat="50.01715" lon="5.3447">
        <ele>268</ele>
        <time>2018-02-18T10:14:19Z</time>
      </trkpt>
      <trkpt lat="50.01707" lon="5.34462">
        <ele>268</ele>
        <time>2018-02-18T10:14:29Z</time>
      </trkpt>
      <trkpt lat="50.01701" lon="5.34456">
        <ele>269</ele>
        <time>2018-02-18T10:14:40Z</time>
      </trkpt>
      <trkpt lat="50.01698" lon="5.34448">
        <ele>270</ele>
        <time>2018-02-18T10:14:51Z</time>
      </trkpt>
      <trkpt lat="50.01693" lon="5.34447">
        <ele>271</ele>
        <time>2018-02-18T10:15:01Z</time>
      </trkpt>
      <trkpt lat="50.01692" lon="5.3446">
        <ele>270</ele>
        <time>2018-02-18T10:15:11Z</time>
      </trkpt>
      <trkpt lat="50.01688" lon="5.34471">
        <ele>269</ele>
        <time>2018-02-18T10:15:21Z</time>
      </trkpt>
      <trkpt lat="50.01688" lon="5.34488">
        <ele>268</ele>
        <time>2018-02-18T10:15:32Z</time>
      </trkpt>
      <trkpt lat="50.01687" lon="5.34505">
        <ele>267</ele>
        <time>2018-02-18T10:15:42Z</time>
      </trkpt>
      <trkpt lat="50.01687" lon="5.34519">
        <ele>266</ele>
        <time>2018-02-18T10:15:52Z</time>
      </trkpt>
      <trkpt lat="50.01687" lon="5.34522">
        <ele>265</ele>
        <time>2018-02-18T10:16:03Z</time>
      </trkpt>
      <trkpt lat="50.01686" lon="5.34523">
        <ele>266</ele>
        <time>2018-02-18T10:16:13Z</time>
      </trkpt>
      <trkpt lat="50.01688" lon="5.34527">
        <ele>266</ele>
        <time>2018-02-18T10:16:23Z</time>
      </trkpt>
      <trkpt lat="50.01685" lon="5.34541">
        <ele>265</ele>
        <time>2018-02-18T10:16:33Z</time>
      </trkpt>
      <trkpt lat="50.01674" lon="5.34555">
        <ele>265</ele>
        <time>2018-02-18T10:16:44Z</time>
      </trkpt>
      <trkpt lat="50.01664" lon="5.34565">
        <ele>266</ele>
        <time>2018-02-18T10:16:54Z</time>
      </trkpt>
      <trkpt lat="50.01652" lon="5.3457">
        <ele>266</ele>
        <time>2018-02-18T10:17:05Z</time>
      </trkpt>
      <trkpt lat="50.01641" lon="5.34579">
        <ele>266</ele>
        <time>2018-02-18T10:17:16Z</time>
      </trkpt>
      <trkpt lat="50.01629" lon="5.34586">
        <ele>266</ele>
        <time>2018-02-18T10:17:26Z</time>
      </trkpt>
      <trkpt lat="50.01617" lon="5.34593">
        <ele>266</ele>
        <time>2018-02-18T10:17:37Z</time>
      </trkpt>
      <trkpt lat="50.01607" lon="5.34598">
        <ele>267</ele>
        <time>2018-02-18T10:17:48Z</time>
      </trkpt>
      <trkpt lat="50.01596" lon="5.34602">
        <ele>266</ele>
        <time>2018-02-18T10:17:59Z</time>
      </trkpt>
      <trkpt lat="50.01582" lon="5.34602">
        <ele>267</ele>
        <time>2018-02-18T10:18:10Z</time>
      </trkpt>
      <trkpt lat="50.01568" lon="5.34604">
        <ele>267</ele>
        <time>2018-02-18T10:18:21Z</time>
      </trkpt>
      <trkpt lat="50.01556" lon="5.34606">
        <ele>267</ele>
        <time>2018-02-18T10:18:32Z</time>
      </trkpt>
      <trkpt lat="50.01545" lon="5.34608">
        <ele>268</ele>
        <time>2018-02-18T10:18:42Z</time>
      </trkpt>
      <trkpt lat="50.01537" lon="5.34609">
        <ele>268</ele>
        <time>2018-02-18T10:18:52Z</time>
      </trkpt>
      <trkpt lat="50.01525" lon="5.34609">
        <ele>268</ele>
        <time>2018-02-18T10:19:04Z</time>
      </trkpt>
      <trkpt lat="50.01515" lon="5.3461">
        <ele>268</ele>
        <time>2018-02-18T10:19:14Z</time>
      </trkpt>
      <trkpt lat="50.01507" lon="5.3461">
        <ele>269</ele>
        <time>2018-02-18T10:19:24Z</time>
      </trkpt>
      <trkpt lat="50.01494" lon="5.34612">
        <ele>269</ele>
        <time>2018-02-18T10:19:34Z</time>
      </trkpt>
      <trkpt lat="50.01483" lon="5.34616">
        <ele>269</ele>
        <time>2018-02-18T10:19:44Z</time>
      </trkpt>
      <trkpt lat="50.01474" lon="5.34618">
        <ele>269</ele>
        <time>2018-02-18T10:19:55Z</time>
      </trkpt>
      <trkpt lat="50.01461" lon="5.34622">
        <ele>270</ele>
        <time>2018-02-18T10:20:06Z</time>
      </trkpt>
      <trkpt lat="50.01447" lon="5.34628">
        <ele>270</ele>
        <time>2018-02-18T10:20:17Z</time>
      </trkpt>
      <trkpt lat="50.01435" lon="5.34639">
        <ele>271</ele>
        <time>2018-02-18T10:20:27Z</time>
      </trkpt>
      <trkpt lat="50.01425" lon="5.34647">
        <ele>272</ele>
        <time>2018-02-18T10:20:38Z</time>
      </trkpt>
      <trkpt lat="50.01415" lon="5.34657">
        <ele>272</ele>
        <time>2018-02-18T10:20:48Z</time>
      </trkpt>
      <trkpt lat="50.01404" lon="5.34669">
        <ele>272</ele>
        <time>2018-02-18T10:20:59Z</time>
      </trkpt>
      <trkpt lat="50.01392" lon="5.34679">
        <ele>273</ele>
        <time>2018-02-18T10:21:09Z</time>
      </trkpt>
      <trkpt lat="50.01379" lon="5.34682">
        <ele>273</ele>
        <time>2018-02-18T10:21:20Z</time>
      </trkpt>
      <trkpt lat="50.01364" lon="5.34687">
        <ele>274</ele>
        <time>2018-02-18T10:21:30Z</time>
      </trkpt>
      <trkpt lat="50.0135" lon="5.34692">
        <ele>275</ele>
        <time>2018-02-18T10:21:40Z</time>
      </trkpt>
      <trkpt lat="50.01338" lon="5.34695">
        <ele>276</ele>
        <time>2018-02-18T10:21:50Z</time>
      </trkpt>
      <trkpt lat="50.01328" lon="5.34698">
        <ele>275</ele>
        <time>2018-02-18T10:22:01Z</time>
      </trkpt>
      <trkpt lat="50.01317" lon="5.34697">
        <ele>277</ele>
        <time>2018-02-18T10:22:11Z</time>
      </trkpt>
      <trkpt lat="50.01302" lon="5.34696">
        <ele>278</ele>
        <time>2018-02-18T10:22:21Z</time>
      </trkpt>
      <trkpt lat="50.01291" lon="5.34695">
        <ele>279</ele>
        <time>2018-02-18T10:22:32Z</time>
      </trkpt>
      <trkpt lat="50.01283" lon="5.34696">
        <ele>279</ele>
        <time>2018-02-18T10:22:43Z</time>
      </trkpt>
      <trkpt lat="50.01276" lon="5.34697">
        <ele>279</ele>
        <time>2018-02-18T10:22:54Z</time>
      </trkpt>
      <trkpt lat="50.01272" lon="5.34699">
        <ele>279</ele>
        <time>2018-02-18T10:23:04Z</time>
      </trkpt>
      <trkpt lat="50.01262" lon="5.34699">
        <ele>279</ele>
        <time>2018-02-18T10:23:15Z</time>
      </trkpt>
      <trkpt lat="50.0126" lon="5.34702">
        <ele>279</ele>
        <time>2018-02-18T10:23:26Z</time>
      </trkpt>
      <trkpt lat="50.01251" lon="5.34703">
        <ele>279</ele>
        <time>2018-02-18T10:23:36Z</time>
      </trkpt>
      <trkpt lat="50.0124" lon="5.34701">
        <ele>280</ele>
        <time>2018-02-18T10:23:47Z</time>
      </trkpt>
      <trkpt lat="50.01225" lon="5.34699">
        <ele>281</ele>
        <time>2018-02-18T10:23:57Z</time>
      </trkpt>
      <trkpt lat="50.01212" lon="5.34698">
        <ele>281</ele>
        <time>2018-02-18T10:24:07Z</time>
      </trkpt>
      <trkpt lat="50.01199" lon="5.34697">
        <ele>281</ele>
        <time>2018-02-18T10:24:18Z</time>
      </trkpt>
      <trkpt lat="50.01184" lon="5.34701">
        <ele>282</ele>
        <time>2018-02-18T10:24:28Z</time>
      </trkpt>
      <trkpt lat="50.01172" lon="5.34702">
        <ele>283</ele>
        <time>2018-02-18T10:24:39Z</time>
      </trkpt>
      <trkpt lat="50.01161" lon="5.34706">
        <ele>284</ele>
        <time>2018-02-18T10:24:49Z</time>
      </trkpt>
      <trkpt lat="50.01146" lon="5.34714">
        <ele>284</ele>
        <time>2018-02-18T10:24:59Z</time>
      </trkpt>
      <trkpt lat="50.01131" lon="5.34718">
        <ele>284</ele>
        <time>2018-02-18T10:25:09Z</time>
      </trkpt>
      <trkpt lat="50.01117" lon="5.34719">
        <ele>285</ele>
        <time>2018-02-18T10:25:20Z</time>
      </trkpt>
      <trkpt lat="50.01101" lon="5.34716">
        <ele>286</ele>
        <time>2018-02-18T10:25:31Z</time>
      </trkpt>
      <trkpt lat="50.01088" lon="5.34705">
        <ele>286</ele>
        <time>2018-02-18T10:25:41Z</time>
      </trkpt>
      <trkpt lat="50.01077" lon="5.34693">
        <ele>287</ele>
        <time>2018-02-18T10:25:52Z</time>
      </trkpt>
      <trkpt lat="50.0107" lon="5.34684">
        <ele>287</ele>
        <time>2018-02-18T10:26:02Z</time>
      </trkpt>
      <trkpt lat="50.01062" lon="5.3467">
        <ele>288</ele>
        <time>2018-02-18T10:26:13Z</time>
      </trkpt>
      <trkpt lat="50.01053" lon="5.34654">
        <ele>289</ele>
        <time>2018-02-18T10:26:23Z</time>
      </trkpt>
      <trkpt lat="50.01043" lon="5.3464">
        <ele>290</ele>
        <time>2018-02-18T10:26:34Z</time>
      </trkpt>
      <trkpt lat="50.01034" lon="5.34624">
        <ele>291</ele>
        <time>2018-02-18T10:26:44Z</time>
      </trkpt>
      <trkpt lat="50.01025" lon="5.34611">
        <ele>291</ele>
        <time>2018-02-18T10:26:54Z</time>
      </trkpt>
      <trkpt lat="50.01017" lon="5.34595">
        <ele>293</ele>
        <time>2018-02-18T10:27:04Z</time>
      </trkpt>
      <trkpt lat="50.01008" lon="5.34577">
        <ele>293</ele>
        <time>2018-02-18T10:27:15Z</time>
      </trkpt>
      <trkpt lat="50.01001" lon="5.34561">
        <ele>294</ele>
        <time>2018-02-18T10:27:25Z</time>
      </trkpt>
      <trkpt lat="50.00993" lon="5.34545">
        <ele>295</ele>
        <time>2018-02-18T10:27:35Z</time>
      </trkpt>
      <trkpt lat="50.00986" lon="5.34528">
        <ele>296</ele>
        <time>2018-02-18T10:27:46Z</time>
      </trkpt>
      <trkpt lat="50.00977" lon="5.34514">
        <ele>296</ele>
        <time>2018-02-18T10:27:57Z</time>
      </trkpt>
      <trkpt lat="50.00967" lon="5.34496">
        <ele>298</ele>
        <time>2018-02-18T10:28:07Z</time>
      </trkpt>
      <trkpt lat="50.0096" lon="5.34481">
        <ele>298</ele>
        <time>2018-02-18T10:28:17Z</time>
      </trkpt>
      <trkpt lat="50.00952" lon="5.34467">
        <ele>298</ele>
        <time>2018-02-18T10:28:28Z</time>
      </trkpt>
      <trkpt lat="50.00944" lon="5.34454">
        <ele>299</ele>
        <time>2018-02-18T10:28:38Z</time>
      </trkpt>
      <trkpt lat="50.00937" lon="5.34441">
        <ele>299</ele>
        <time>2018-02-18T10:28:48Z</time>
      </trkpt>
      <trkpt lat="50.00929" lon="5.34426">
        <ele>300</ele>
        <time>2018-02-18T10:28:59Z</time>
      </trkpt>
      <trkpt lat="50.0092" lon="5.3441">
        <ele>301</ele>
        <time>2018-02-18T10:29:10Z</time>
      </trkpt>
      <trkpt lat="50.00915" lon="5.34395">
        <ele>301</ele>
        <time>2018-02-18T10:29:20Z</time>
      </trkpt>
      <trkpt lat="50.00906" lon="5.34382">
        <ele>303</ele>
        <time>2018-02-18T10:29:31Z</time>
      </trkpt>
      <trkpt lat="50.00901" lon="5.3437">
        <ele>304</ele>
        <time>2018-02-18T10:29:41Z</time>
      </trkpt>
      <trkpt lat="50.00896" lon="5.34353">
        <ele>305</ele>
        <time>2018-02-18T10:29:52Z</time>
      </trkpt>
      <trkpt lat="50.00887" lon="5.3434">
        <ele>305</ele>
        <time>2018-02-18T10:30:02Z</time>
      </trkpt>
      <trkpt lat="50.00872" lon="5.34339">
        <ele>305</ele>
        <time>2018-02-18T10:30:14Z</time>
      </trkpt>
      <trkpt lat="50.00859" lon="5.34345">
        <ele>305</ele>
        <time>2018-02-18T10:30:24Z</time>
      </trkpt>
      <trkpt lat="50.00845" lon="5.3435">
        <ele>305</ele>
        <time>2018-02-18T10:30:34Z</time>
      </trkpt>
      <trkpt lat="50.00832" lon="5.34355">
        <ele>306</ele>
        <time>2018-02-18T10:30:45Z</time>
      </trkpt>
      <trkpt lat="50.00819" lon="5.3436">
        <ele>307</ele>
        <time>2018-02-18T10:30:55Z</time>
      </trkpt>
      <trkpt lat="50.00807" lon="5.34366">
        <ele>308</ele>
        <time>2018-02-18T10:31:05Z</time>
      </trkpt>
      <trkpt lat="50.00795" lon="5.34371">
        <ele>309</ele>
        <time>2018-02-18T10:31:16Z</time>
      </trkpt>
      <trkpt lat="50.00782" lon="5.34373">
        <ele>311</ele>
        <time>2018-02-18T10:31:26Z</time>
      </trkpt>
      <trkpt lat="50.00768" lon="5.34376">
        <ele>311</ele>
        <time>2018-02-18T10:31:37Z</time>
      </trkpt>
      <trkpt lat="50.00754" lon="5.34382">
        <ele>313</ele>
        <time>2018-02-18T10:31:48Z</time>
      </trkpt>
      <trkpt lat="50.00353" lon="5.36262">
        <ele>359</ele>
        <time>2018-02-18T10:31:59Z</time>
      </trkpt>
      <trkpt lat="50.00356" lon="5.36278">
        <ele>360</ele>
        <time>2018-02-18T10:32:09Z</time>
      </trkpt>
      <trkpt lat="50.00355" lon="5.36295">
        <ele>360</ele>
        <time>2018-02-18T10:32:20Z</time>
      </trkpt>
      <trkpt lat="50.00353" lon="5.36315">
        <ele>360</ele>
        <time>2018-02-18T10:32:30Z</time>
      </trkpt>
      <trkpt lat="50.00353" lon="5.36333">
        <ele>360</ele>
        <time>2018-02-18T10:32:40Z</time>
      </trkpt>
      <trkpt lat="50.00353" lon="5.36349">
        <ele>361</ele>
        <time>2018-02-18T10:32:50Z</time>
      </trkpt>
      <trkpt lat="50.0035" lon="5.3637">
        <ele>362</ele>
        <time>2018-02-18T10:33:01Z</time>
      </trkpt>
      <trkpt lat="50.00349" lon="5.36388">
        <ele>362</ele>
        <time>2018-02-18T10:33:11Z</time>
      </trkpt>
      <trkpt lat="50.00346" lon="5.36409">
        <ele>363</ele>
        <time>2018-02-18T10:33:22Z</time>
      </trkpt>
      <trkpt lat="50.00343" lon="5.3643">
        <ele>364</ele>
        <time>2018-02-18T10:33:33Z</time>
      </trkpt>
      <trkpt lat="50.0034" lon="5.36445">
        <ele>365</ele>
        <time>2018-02-18T10:33:44Z</time>
      </trkpt>
      <trkpt lat="50.0034" lon="5.36466">
        <ele>365</ele>
        <time>2018-02-18T10:33:54Z</time>
      </trkpt>
      <trkpt lat="50.0034" lon="5.36484">
        <ele>366</ele>
        <time>2018-02-18T10:34:06Z</time>
      </trkpt>
      <trkpt lat="50.00339" lon="5.36503">
        <ele>367</ele>
        <time>2018-02-18T10:34:16Z</time>
      </trkpt>
      <trkpt lat="50.00337" lon="5.36522">
        <ele>367</ele>
        <time>2018-02-18T10:34:26Z</time>
      </trkpt>
      <trkpt lat="50.00334" lon="5.36541">
        <ele>368</ele>
        <time>2018-02-18T10:34:38Z</time>
      </trkpt>
      <trkpt lat="50.00334" lon="5.36563">
        <ele>368</ele>
        <time>2018-02-18T10:34:48Z</time>
      </trkpt>
      <trkpt lat="50.00331" lon="5.36584">
        <ele>369</ele>
        <time>2018-02-18T10:34:59Z</time>
      </trkpt>
      <trkpt lat="50.00332" lon="5.36602">
        <ele>370</ele>
        <time>2018-02-18T10:35:10Z</time>
      </trkpt>
      <trkpt lat="50.00336" lon="5.3662">
        <ele>370</ele>
        <time>2018-02-18T10:35:20Z</time>
      </trkpt>
      <trkpt lat="50.00343" lon="5.36626">
        <ele>369</ele>
        <time>2018-02-18T10:35:32Z</time>
      </trkpt>
      <trkpt lat="50.00353" lon="5.36629">
        <ele>369</ele>
        <time>2018-02-18T10:35:43Z</time>
      </trkpt>
      <trkpt lat="50.00369" lon="5.36632">
        <ele>368</ele>
        <time>2018-02-18T10:35:53Z</time>
      </trkpt>
      <trkpt lat="50.00381" lon="5.36633">
        <ele>367</ele>
        <time>2018-02-18T10:36:05Z</time>
      </trkpt>
      <trkpt lat="50.00395" lon="5.36629">
        <ele>367</ele>
        <time>2018-02-18T10:36:15Z</time>
      </trkpt>
      <trkpt lat="50.00404" lon="5.36629">
        <ele>366</ele>
        <time>2018-02-18T10:36:25Z</time>
      </trkpt>
      <trkpt lat="50.00417" lon="5.36629">
        <ele>365</ele>
        <time>2018-02-18T10:36:36Z</time>
      </trkpt>
      <trkpt lat="50.00428" lon="5.3663">
        <ele>364</ele>
        <time>2018-02-18T10:36:46Z</time>
      </trkpt>
      <trkpt lat="50.00439" lon="5.3663">
        <ele>363</ele>
        <time>2018-02-18T10:36:57Z</time>
      </trkpt>
      <trkpt lat="50.00451" lon="5.3663">
        <ele>363</ele>
        <time>2018-02-18T10:37:07Z</time>
      </trkpt>
      <trkpt lat="50.00464" lon="5.3663">
        <ele>362</ele>
        <time>2018-02-18T10:37:18Z</time>
      </trkpt>
      <trkpt lat="50.00477" lon="5.36632">
        <ele>362</ele>
        <time>2018-02-18T10:37:28Z</time>
      </trkpt>
      <trkpt lat="50.00491" lon="5.36632">
        <ele>362</ele>
        <time>2018-02-18T10:37:39Z</time>
      </trkpt>
      <trkpt lat="50.00504" lon="5.36632">
        <ele>361</ele>
        <time>2018-02-18T10:37:51Z</time>
      </trkpt>
      <trkpt lat="50.00518" lon="5.36631">
        <ele>361</ele>
        <time>2018-02-18T10:38:01Z</time>
      </trkpt>
      <trkpt lat="50.00527" lon="5.36635">
        <ele>361</ele>
        <time>2018-02-18T10:38:11Z</time>
      </trkpt>
      <trkpt lat="50.0054" lon="5.36638">
        <ele>361</ele>
        <time>2018-02-18T10:38:22Z</time>
      </trkpt>
      <trkpt lat="50.00554" lon="5.36643">
        <ele>361</ele>
        <time>2018-02-18T10:38:33Z</time>
      </trkpt>
      <trkpt lat="50.00566" lon="5.36646">
        <ele>361</ele>
        <time>2018-02-18T10:38:43Z</time>
      </trkpt>
      <trkpt lat="50.00576" lon="5.36656">
        <ele>361</ele>
        <time>2018-02-18T10:38:54Z</time>
      </trkpt>
      <trkpt lat="50.00577" lon="5.3667">
        <ele>361</ele>
        <time>2018-02-18T10:39:05Z</time>
      </trkpt>
      <trkpt lat="50.00575" lon="5.36684">
        <ele>362</ele>
        <time>2018-02-18T10:39:15Z</time>
      </trkpt>
      <trkpt lat="50.00574" lon="5.36698">
        <ele>362</ele>
        <time>2018-02-18T10:39:26Z</time>
      </trkpt>
      <trkpt lat="50.00576" lon="5.36715">
        <ele>362</ele>
        <time>2018-02-18T10:39:37Z</time>
      </trkpt>
      <trkpt lat="50.00576" lon="5.36736">
        <ele>363</ele>
        <time>2018-02-18T10:39:47Z</time>
      </trkpt>
      <trkpt lat="50.00575" lon="5.36757">
        <ele>363</ele>
        <time>2018-02-18T10:39:57Z</time>
      </trkpt>
      <trkpt lat="50.00576" lon="5.36779">
        <ele>364</ele>
        <time>2018-02-18T10:40:08Z</time>
      </trkpt>
      <trkpt lat="50.00578" lon="5.36798">
        <ele>364</ele>
        <time>2018-02-18T10:40:18Z</time>
      </trkpt>
      <trkpt lat="50.00578" lon="5.36816">
        <ele>365</ele>
        <time>2018-02-18T10:40:28Z</time>
      </trkpt>
      <trkpt lat="50.00578" lon="5.36834">
        <ele>366</ele>
        <time>2018-02-18T10:40:39Z</time>
      </trkpt>
      <trkpt lat="50.00577" lon="5.36854">
        <ele>366</ele>
        <time>2018-02-18T10:40:49Z</time>
      </trkpt>
      <trkpt lat="50.00573" lon="5.36874">
        <ele>367</ele>
        <time>2018-02-18T10:41:00Z</time>
      </trkpt>
      <trkpt lat="50.0057" lon="5.36897">
        <ele>367</ele>
        <time>2018-02-18T10:41:10Z</time>
      </trkpt>
      <trkpt lat="50.0057" lon="5.36916">
        <ele>368</ele>
        <time>2018-02-18T10:41:20Z</time>
      </trkpt>
      <trkpt lat="50.00571" lon="5.36936">
        <ele>368</ele>
        <time>2018-02-18T10:41:30Z</time>
      </trkpt>
      <trkpt lat="50.00573" lon="5.36957">
        <ele>369</ele>
        <time>2018-02-18T10:41:41Z</time>
      </trkpt>
      <trkpt lat="50.00573" lon="5.36979">
        <ele>369</ele>
        <time>2018-02-18T10:41:51Z</time>
      </trkpt>
      <trkpt lat="50.00578" lon="5.36998">
        <ele>370</ele>
        <time>2018-02-18T10:42:02Z</time>
      </trkpt>
      <trkpt lat="50.00582" lon="5.37018">
        <ele>370</ele>
        <time>2018-02-18T10:42:13Z</time>
      </trkpt>
      <trkpt lat="50.00583" lon="5.3704">
        <ele>370</ele>
        <time>2018-02-18T10:42:23Z</time>
      </trkpt>
      <trkpt lat="50.00581" lon="5.37059">
        <ele>370</ele>
        <time>2018-02-18T10:42:33Z</time>
      </trkpt>
      <trkpt lat="50.00575" lon="5.3708">
        <ele>371</ele>
        <time>2018-02-18T10:42:44Z</time>
      </trkpt>
      <trkpt lat="50.0057" lon="5.37099">
        <ele>370</ele>
        <time>2018-02-18T10:42:54Z</time>
      </trkpt>
      <trkpt lat="50.00565" lon="5.37121">
        <ele>371</ele>
        <time>2018-02-18T10:43:05Z</time>
      </trkpt>
      <trkpt lat="50.00561" lon="5.37142">
        <ele>372</ele>
        <time>2018-02-18T10:43:15Z</time>
      </trkpt>
      <trkpt lat="50.00555" lon="5.37161">
        <ele>372</ele>
        <time>2018-02-18T10:43:25Z</time>
      </trkpt>
      <trkpt lat="50.00548" lon="5.37181">
        <ele>372</ele>
        <time>2018-02-18T10:43:35Z</time>
      </trkpt>
      <trkpt lat="50.00544" lon="5.37201">
        <ele>373</ele>
        <time>2018-02-18T10:43:47Z</time>
      </trkpt>
      <trkpt lat="50.00544" lon="5.37222">
        <ele>374</ele>
        <time>2018-02-18T10:43:57Z</time>
      </trkpt>
      <trkpt lat="50.00546" lon="5.37244">
        <ele>374</ele>
        <time>2018-02-18T10:44:08Z</time>
      </trkpt>
      <trkpt lat="50.00546" lon="5.37265">
        <ele>374</ele>
        <time>2018-02-18T10:44:18Z</time>
      </trkpt>
      <trkpt lat="50.00548" lon="5.37288">
        <ele>375</ele>
        <time>2018-02-18T10:44:29Z</time>
      </trkpt>
      <trkpt lat="50.00547" lon="5.37307">
        <ele>375</ele>
        <time>2018-02-18T10:44:40Z</time>
      </trkpt>
      <trkpt lat="50.00549" lon="5.37324">
        <ele>375</ele>
        <time>2018-02-18T10:44:50Z</time>
      </trkpt>
      <trkpt lat="50.00552" lon="5.37346">
        <ele>376</ele>
        <time>2018-02-18T10:45:01Z</time>
      </trkpt>
      <trkpt lat="50.00554" lon="5.37369">
        <ele>376</ele>
        <time>2018-02-18T10:45:12Z</time>
      </trkpt>
      <trkpt lat="50.00555" lon="5.37393">
        <ele>377</ele>
        <time>2018-02-18T10:45:23Z</time>
      </trkpt>
      <trkpt lat="50.00554" lon="5.37416">
        <ele>377</ele>
        <time>2018-02-18T10:45:34Z</time>
      </trkpt>
      <trkpt lat="50.00553" lon="5.37434">
        <ele>377</ele>
        <time>2018-02-18T10:45:44Z</time>
      </trkpt>
      <trkpt lat="50.0055" lon="5.37458">
        <ele>377</ele>
        <time>2018-02-18T10:45:55Z</time>
      </trkpt>
      <trkpt lat="50.00552" lon="5.37479">
        <ele>377</ele>
        <time>2018-02-18T10:46:06Z</time>
      </trkpt>
      <trkpt lat="50.00553" lon="5.37499">
        <ele>376</ele>
        <time>2018-02-18T10:46:16Z</time>
      </trkpt>
      <trkpt lat="50.00551" lon="5.37522">
        <ele>377</ele>
        <time>2018-02-18T10:46:27Z</time>
      </trkpt>
      <trkpt lat="50.00549" lon="5.37545">
        <ele>377</ele>
        <time>2018-02-18T10:46:39Z</time>
      </trkpt>
      <trkpt lat="50.00549" lon="5.37567">
        <ele>376</ele>
        <time>2018-02-18T10:46:49Z</time>
      </trkpt>
      <trkpt lat="50.00548" lon="5.37587">
        <ele>377</ele>
        <time>2018-02-18T10:47:00Z</time>
      </trkpt>
      <trkpt lat="50.00545" lon="5.37611">
        <ele>376</ele>
        <time>2018-02-18T10:47:10Z</time>
      </trkpt>
      <trkpt lat="50.00539" lon="5.37633">
        <ele>375</ele>
        <time>2018-02-18T10:47:21Z</time>
      </trkpt>
      <trkpt lat="50.00538" lon="5.37657">
        <ele>374</ele>
        <time>2018-02-18T10:47:32Z</time>
      </trkpt>
      <trkpt lat="50.00539" lon="5.3768">
        <ele>373</ele>
        <time>2018-02-18T10:47:43Z</time>
      </trkpt>
      <trkpt lat="50.00539" lon="5.37702">
        <ele>372</ele>
        <time>2018-02-18T10:47:54Z</time>
      </trkpt>
      <trkpt lat="50.0054" lon="5.37721">
        <ele>372</ele>
        <time>2018-02-18T10:48:04Z</time>
      </trkpt>
      <trkpt lat="50.00537" lon="5.37741">
        <ele>371</ele>
        <time>2018-02-18T10:48:15Z</time>
      </trkpt>
      <trkpt lat="50.00529" lon="5.37758">
        <ele>369</ele>
        <time>2018-02-18T10:48:25Z</time>
      </trkpt>
      <trkpt lat="50.00522" lon="5.37777">
        <ele>368</ele>
        <time>2018-02-18T10:48:36Z</time>
      </trkpt>
      <trkpt lat="50.00518" lon="5.37796">
        <ele>367</ele>
        <time>2018-02-18T10:48:46Z</time>
      </trkpt>
      <trkpt lat="50.00511" lon="5.37816">
        <ele>366</ele>
        <time>2018-02-18T10:48:57Z</time>
      </trkpt>
      <trkpt lat="50.00513" lon="5.37839">
        <ele>364</ele>
        <time>2018-02-18T10:49:08Z</time>
      </trkpt>
      <trkpt lat="50.00513" lon="5.3786">
        <ele>363</ele>
        <time>2018-02-18T10:49:18Z</time>
      </trkpt>
      <trkpt lat="50.00523" lon="5.37879">
        <ele>361</ele>
        <time>2018-02-18T10:49:29Z</time>
      </trkpt>
      <trkpt lat="50.00537" lon="5.37887">
        <ele>361</ele>
        <time>2018-02-18T10:49:40Z</time>
      </trkpt>
      <trkpt lat="50.00552" lon="5.37899">
        <ele>359</ele>
        <time>2018-02-18T10:49:50Z</time>
      </trkpt>
      <trkpt lat="50.00564" lon="5.37911">
        <ele>358</ele>
        <time>2018-02-18T10:50:00Z</time>
      </trkpt>
      <trkpt lat="50.00577" lon="5.3792">
        <ele>357</ele>
        <time>2018-02-18T10:50:10Z</time>
      </trkpt>
      <trkpt lat="50.00591" lon="5.37933">
        <ele>355</ele>
        <time>2018-02-18T10:50:21Z</time>
      </trkpt>
      <trkpt lat="50.00604" lon="5.37942">
        <ele>354</ele>
        <time>2018-02-18T10:50:32Z</time>
      </trkpt>
      <trkpt lat="50.00619" lon="5.3795">
        <ele>353</ele>
        <time>2018-02-18T10:50:42Z</time>
      </trkpt>
      <trkpt lat="50.00627" lon="5.37966">
        <ele>352</ele>
        <time>2018-02-18T10:50:53Z</time>
      </trkpt>
      <trkpt lat="50.00644" lon="5.37971">
        <ele>350</ele>
        <time>2018-02-18T10:51:04Z</time>
      </trkpt>
      <trkpt lat="50.00659" lon="5.37978">
        <ele>349</ele>
        <time>2018-02-18T10:51:15Z</time>
      </trkpt>
      <trkpt lat="50.00671" lon="5.37982">
        <ele>348</ele>
        <time>2018-02-18T10:51:26Z</time>
      </trkpt>
      <trkpt lat="50.00677" lon="5.37975">
        <ele>347</ele>
        <time>2018-02-18T10:51:36Z</time>
      </trkpt>
      <trkpt lat="50.00687" lon="5.37963">
        <ele>348</ele>
        <time>2018-02-18T10:51:47Z</time>
      </trkpt>
      <trkpt lat="50.00695" lon="5.3795">
        <ele>348</ele>
        <time>2018-02-18T10:51:57Z</time>
      </trkpt>
      <trkpt lat="50.00704" lon="5.37934">
        <ele>348</ele>
        <time>2018-02-18T10:52:07Z</time>
      </trkpt>
      <trkpt lat="50.00711" lon="5.3792">
        <ele>349</ele>
        <time>2018-02-18T10:52:18Z</time>
      </trkpt>
      <trkpt lat="50.00719" lon="5.37904">
        <ele>348</ele>
        <time>2018-02-18T10:52:28Z</time>
      </trkpt>
      <trkpt lat="50.00729" lon="5.37884">
        <ele>349</ele>
        <time>2018-02-18T10:52:39Z</time>
      </trkpt>
      <trkpt lat="50.0074" lon="5.37866">
        <ele>348</ele>
        <time>2018-02-18T10:52:50Z</time>
      </trkpt>
      <trkpt lat="50.00746" lon="5.37849">
        <ele>348</ele>
        <time>2018-02-18T10:53:01Z</time>
      </trkpt>
      <trkpt lat="50.00752" lon="5.37836">
        <ele>348</ele>
        <time>2018-02-18T10:53:11Z</time>
      </trkpt>
      <trkpt lat="50.00756" lon="5.37822">
        <ele>347</ele>
        <time>2018-02-18T10:53:22Z</time>
      </trkpt>
      <trkpt lat="50.00763" lon="5.37808">
        <ele>346</ele>
        <time>2018-02-18T10:53:32Z</time>
      </trkpt>
      <trkpt lat="50.00771" lon="5.37789">
        <ele>346</ele>
        <time>2018-02-18T10:53:43Z</time>
      </trkpt>
      <trkpt lat="50.00779" lon="5.37771">
        <ele>346</ele>
        <time>2018-02-18T10:53:53Z</time>
      </trkpt>
      <trkpt lat="50.00786" lon="5.37749">
        <ele>345</ele>
        <time>2018-02-18T10:54:04Z</time>
      </trkpt>
      <trkpt lat="50.00793" lon="5.37731">
        <ele>345</ele>
        <time>2018-02-18T10:54:14Z</time>
      </trkpt>
      <trkpt lat="50.00798" lon="5.37711">
        <ele>344</ele>
        <time>2018-02-18T10:54:24Z</time>
      </trkpt>
      <trkpt lat="50.00806" lon="5.37691">
        <ele>343</ele>
        <time>2018-02-18T10:54:34Z</time>
      </trkpt>
      <trkpt lat="50.0081" lon="5.37673">
        <ele>343</ele>
        <time>2018-02-18T10:54:44Z</time>
      </trkpt>
      <trkpt lat="50.00814" lon="5.37648">
        <ele>342</ele>
        <time>2018-02-18T10:54:54Z</time>
      </trkpt>
      <trkpt lat="50.00815" lon="5.37625">
        <ele>341</ele>
        <time>2018-02-18T10:55:05Z</time>
      </trkpt>
      <trkpt lat="50.00817" lon="5.37604">
        <ele>341</ele>
        <time>2018-02-18T10:55:16Z</time>
      </trkpt>
      <trkpt lat="50.00818" lon="5.37589">
        <ele>341</ele>
        <time>2018-02-18T10:55:26Z</time>
      </trkpt>
      <trkpt lat="50.00819" lon="5.37569">
        <ele>341</ele>
        <time>2018-02-18T10:55:36Z</time>
      </trkpt>
      <trkpt lat="50.00824" lon="5.37547">
        <ele>340</ele>
        <time>2018-02-18T10:55:47Z</time>
      </trkpt>
      <trkpt lat="50.00828" lon="5.37526">
        <ele>339</ele>
        <time>2018-02-18T10:55:57Z</time>
      </trkpt>
      <trkpt lat="50.0083" lon="5.37503">
        <ele>339</ele>
        <time>2018-02-18T10:56:08Z</time>
      </trkpt>
      <trkpt lat="50.00833" lon="5.37484">
        <ele>339</ele>
        <time>2018-02-18T10:56:18Z</time>
      </trkpt>
      <trkpt lat="50.00835" lon="5.37464">
        <ele>337</ele>
        <time>2018-02-18T10:56:29Z</time>
      </trkpt>
      <trkpt lat="50.00838" lon="5.37441">
        <ele>336</ele>
        <time>2018-02-18T10:56:40Z</time>
      </trkpt>
      <trkpt lat="50.00843" lon="5.3742">
        <ele>336</ele>
        <time>2018-02-18T10:56:50Z</time>
      </trkpt>
      <trkpt lat="50.00847" lon="5.37399">
        <ele>335</ele>
        <time>2018-02-18T10:57:01Z</time>
      </trkpt>
      <trkpt lat="50.00851" lon="5.37381">
        <ele>334</ele>
        <time>2018-02-18T10:57:11Z</time>
      </trkpt>
      <trkpt lat="50.00855" lon="5.37362">
        <ele>333</ele>
        <time>2018-02-18T10:57:21Z</time>
      </trkpt>
      <trkpt lat="50.00857" lon="5.37347">
        <ele>332</ele>
        <time>2018-02-18T10:57:31Z</time>
      </trkpt>
      <trkpt lat="50.0086" lon="5.37334">
        <ele>330</ele>
        <time>2018-02-18T10:57:41Z</time>
      </trkpt>
      <trkpt lat="50.00864" lon="5.37314">
        <ele>330</ele>
        <time>2018-02-18T10:57:52Z</time>
      </trkpt>
      <trkpt lat="50.00865" lon="5.3729">
        <ele>329</ele>
        <time>2018-02-18T10:58:02Z</time>
      </trkpt>
      <trkpt lat="50.00871" lon="5.37266">
        <ele>328</ele>
        <time>2018-02-18T10:58:13Z</time>
      </trkpt>
      <trkpt lat="50.00876" lon="5.37247">
        <ele>327</ele>
        <time>2018-02-18T10:58:23Z</time>
      </trkpt>
      <trkpt lat="50.00878" lon="5.37233">
        <ele>326</ele>
        <time>2018-02-18T10:58:33Z</time>
      </trkpt>
      <trkpt lat="50.00883" lon="5.37218">
        <ele>324</ele>
        <time>2018-02-18T10:58:44Z</time>
      </trkpt>
      <trkpt lat="50.00883" lon="5.37206">
        <ele>322</ele>
        <time>2018-02-18T10:58:55Z</time>
      </trkpt>
      <trkpt lat="50.00886" lon="5.3719">
        <ele>321</ele>
        <time>2018-02-18T10:59:05Z</time>
      </trkpt>
      <trkpt lat="50.00891" lon="5.37174">
        <ele>320</ele>
        <time>2018-02-18T10:59:16Z</time>
      </trkpt>
      <trkpt lat="50.00898" lon="5.37155">
        <ele>319</ele>
        <time>2018-02-18T10:59:26Z</time>
      </trkpt>
      <trkpt lat="50.00904" lon="5.37137">
        <ele>317</ele>
        <time>2018-02-18T10:59:37Z</time>
      </trkpt>
      <trkpt lat="50.00912" lon="5.37121">
        <ele>316</ele>
        <time>2018-02-18T10:59:48Z</time>
      </trkpt>
      <trkpt lat="50.00918" lon="5.37106">
        <ele>314</ele>
        <time>2018-02-18T10:59:58Z</time>
      </trkpt>
      <trkpt lat="50.00924" lon="5.37091">
        <ele>314</ele>
        <time>2018-02-18T11:00:09Z</time>
      </trkpt>
      <trkpt lat="50.00932" lon="5.37074">
        <ele>312</ele>
        <time>2018-02-18T11:00:20Z</time>
      </trkpt>
      <trkpt lat="50.00943" lon="5.37058">
        <ele>311</ele>
        <time>2018-02-18T11:00:31Z</time>
      </trkpt>
      <trkpt lat="50.00951" lon="5.37042">
        <ele>309</ele>
        <time>2018-02-18T11:00:42Z</time>
      </trkpt>
      <trkpt lat="50.00958" lon="5.37026">
        <ele>309</ele>
        <time>2018-02-18T11:00:52Z</time>
      </trkpt>
      <trkpt lat="50.00964" lon="5.37009">
        <ele>308</ele>
        <time>2018-02-18T11:01:02Z</time>
      </trkpt>
      <trkpt lat="50.00973" lon="5.36988">
        <ele>308</ele>
        <time>2018-02-18T11:01:13Z</time>
      </trkpt>
      <trkpt lat="50.00978" lon="5.36972">
        <ele>307</ele>
        <time>2018-02-18T11:01:23Z</time>
      </trkpt>
      <trkpt lat="50.00982" lon="5.36951">
        <ele>308</ele>
        <time>2018-02-18T11:01:34Z</time>
      </trkpt>
      <trkpt lat="50.00985" lon="5.36933">
        <ele>307</ele>
        <time>2018-02-18T11:01:44Z</time>
      </trkpt>
      <trkpt lat="50.00991" lon="5.36917">
        <ele>307</ele>
        <time>2018-02-18T11:01:55Z</time>
      </trkpt>
      <trkpt lat="50.00991" lon="5.3691">
        <ele>307</ele>
        <time>2018-02-18T11:02:05Z</time>
      </trkpt>
      <trkpt lat="50.00991" lon="5.36899">
        <ele>307</ele>
        <time>2018-02-18T11:02:15Z</time>
      </trkpt>
      <trkpt lat="50.01" lon="5.36879">
        <ele>307</ele>
        <time>2018-02-18T11:02:25Z</time>
      </trkpt>
      <trkpt lat="50.01007" lon="5.36855">
        <ele>308</ele>
        <time>2018-02-18T11:02:36Z</time>
      </trkpt>
      <trkpt lat="50.01009" lon="5.36833">
        <ele>308</ele>
        <time>2018-02-18T11:02:47Z</time>
      </trkpt>
      <trkpt lat="50.01014" lon="5.36813">
        <ele>307</ele>
        <time>2018-02-18T11:02:57Z</time>
      </trkpt>
      <trkpt lat="50.01022" lon="5.36804">
        <ele>307</ele>
        <time>2018-02-18T11:03:07Z</time>
      </trkpt>
      <trkpt lat="50.01026" lon="5.36796">
        <ele>307</ele>
        <time>2018-02-18T11:03:18Z</time>
      </trkpt>
      <trkpt lat="50.01022" lon="5.36778">
        <ele>307</ele>
        <time>2018-02-18T11:03:29Z</time>
      </trkpt>
      <trkpt lat="50.01017" lon="5.36766">
        <ele>307</ele>
        <time>2018-02-18T11:03:40Z</time>
      </trkpt>
      <trkpt lat="50.01014" lon="5.36755">
        <ele>307</ele>
        <time>2018-02-18T11:03:51Z</time>
      </trkpt>
      <trkpt lat="50.01014" lon="5.36735">
        <ele>307</ele>
        <time>2018-02-18T11:04:02Z</time>
      </trkpt>
      <trkpt lat="50.01015" lon="5.36724">
        <ele>307</ele>
        <time>2018-02-18T11:04:12Z</time>
      </trkpt>
      <trkpt lat="50.01017" lon="5.36707">
        <ele>307</ele>
        <time>2018-02-18T11:04:23Z</time>
      </trkpt>
      <trkpt lat="50.01021" lon="5.36688">
        <ele>307</ele>
        <time>2018-02-18T11:04:33Z</time>
      </trkpt>
      <trkpt lat="50.01028" lon="5.36667">
        <ele>307</ele>
        <time>2018-02-18T11:04:44Z</time>
      </trkpt>
      <trkpt lat="50.0103" lon="5.36651">
        <ele>306</ele>
        <time>2018-02-18T11:04:55Z</time>
      </trkpt>
      <trkpt lat="50.01032" lon="5.36635">
        <ele>306</ele>
        <time>2018-02-18T11:05:05Z</time>
      </trkpt>
      <trkpt lat="50.01037" lon="5.36619">
        <ele>306</ele>
        <time>2018-02-18T11:05:16Z</time>
      </trkpt>
      <trkpt lat="50.01042" lon="5.36607">
        <ele>305</ele>
        <time>2018-02-18T11:05:27Z</time>
      </trkpt>
      <trkpt lat="50.01046" lon="5.36588">
        <ele>305</ele>
        <time>2018-02-18T11:05:38Z</time>
      </trkpt>
      <trkpt lat="50.0105" lon="5.36571">
        <ele>306</ele>
        <time>2018-02-18T11:05:48Z</time>
      </trkpt>
      <trkpt lat="50.01054" lon="5.36551">
        <ele>305</ele>
        <time>2018-02-18T11:05:59Z</time>
      </trkpt>
      <trkpt lat="50.01057" lon="5.3653">
        <ele>305</ele>
        <time>2018-02-18T11:06:10Z</time>
      </trkpt>
      <trkpt lat="50.0106" lon="5.3651">
        <ele>306</ele>
        <time>2018-02-18T11:06:21Z</time>
      </trkpt>
      <trkpt lat="50.01064" lon="5.36492">
        <ele>306</ele>
        <time>2018-02-18T11:06:31Z</time>
      </trkpt>
      <trkpt lat="50.0107" lon="5.36473">
        <ele>305</ele>
        <time>2018-02-18T11:06:42Z</time>
      </trkpt>
      <trkpt lat="50.01076" lon="5.36456">
        <ele>305</ele>
        <time>2018-02-18T11:06:53Z</time>
      </trkpt>
      <trkpt lat="50.01079" lon="5.3644">
        <ele>305</ele>
        <time>2018-02-18T11:07:03Z</time>
      </trkpt>
      <trkpt lat="50.01081" lon="5.36423">
        <ele>305</ele>
        <time>2018-02-18T11:07:14Z</time>
      </trkpt>
      <trkpt lat="50.01085" lon="5.36406">
        <ele>304</ele>
        <time>2018-02-18T11:07:25Z</time>
      </trkpt>
      <trkpt lat="50.01087" lon="5.36393">
        <ele>305</ele>
        <time>2018-02-18T11:07:35Z</time>
      </trkpt>
      <trkpt lat="50.01091" lon="5.36381">
        <ele>304</ele>
        <time>2018-02-18T11:07:46Z</time>
      </trkpt>
      <trkpt lat="50.01097" lon="5.36364">
        <ele>304</ele>
        <time>2018-02-18T11:07:56Z</time>
      </trkpt>
      <trkpt lat="50.01101" lon="5.36345">
        <ele>305</ele>
        <time>2018-02-18T11:08:07Z</time>
      </trkpt>
      <trkpt lat="50.01102" lon="5.36326">
        <ele>305</ele>
        <time>2018-02-18T11:08:18Z</time>
      </trkpt>
      <trkpt lat="50.01105" lon="5.36307">
        <ele>305</ele>
        <time>2018-02-18T11:08:29Z</time>
      </trkpt>
      <trkpt lat="50.01107" lon="5.36291">
        <ele>304</ele>
        <time>2018-02-18T11:08:39Z</time>
      </trkpt>
      <trkpt lat="50.01111" lon="5.36275">
        <ele>304</ele>
        <time>2018-02-18T11:08:49Z</time>
      </trkpt>
      <trkpt lat="50.01115" lon="5.36256">
        <ele>303</ele>
        <time>2018-02-18T11:09:00Z</time>
      </trkpt>
      <trkpt lat="50.01124" lon="5.36242">
        <ele>303</ele>
        <time>2018-02-18T11:09:10Z</time>
      </trkpt>
      <trkpt lat="50.01135" lon="5.36232">
        <ele>301</ele>
        <time>2018-02-18T11:09:21Z</time>
      </trkpt>
      <trkpt lat="50.01144" lon="5.36221">
        <ele>300</ele>
        <time>2018-02-18T11:09:31Z</time>
      </trkpt>
      <trkpt lat="50.01155" lon="5.36209">
        <ele>299</ele>
        <time>2018-02-18T11:09:42Z</time>
      </trkpt>
      <trkpt lat="50.01164" lon="5.36196">
        <ele>298</ele>
        <time>2018-02-18T11:09:53Z</time>
      </trkpt>
      <trkpt lat="50.01172" lon="5.36188">
        <ele>298</ele>
        <time>2018-02-18T11:10:03Z</time>
      </trkpt>
      <trkpt lat="50.01174" lon="5.36184">
        <ele>297</ele>
        <time>2018-02-18T11:10:13Z</time>
      </trkpt>
      <trkpt lat="50.01178" lon="5.36179">
        <ele>297</ele>
        <time>2018-02-18T11:10:24Z</time>
      </trkpt>
      <trkpt lat="50.01188" lon="5.36169">
        <ele>296</ele>
        <time>2018-02-18T11:10:35Z</time>
      </trkpt>
      <trkpt lat="50.01199" lon="5.36155">
        <ele>295</ele>
        <time>2018-02-18T11:10:46Z</time>
      </trkpt>
      <trkpt lat="50.01207" lon="5.36139">
        <ele>293</ele>
        <time>2018-02-18T11:10:56Z</time>
      </trkpt>
      <trkpt lat="50.01214" lon="5.36124">
        <ele>293</ele>
        <time>2018-02-18T11:11:06Z</time>
      </trkpt>
      <trkpt lat="50.01223" lon="5.36106">
        <ele>291</ele>
        <time>2018-02-18T11:11:17Z</time>
      </trkpt>
      <trkpt lat="50.0123" lon="5.3609">
        <ele>290</ele>
        <time>2018-02-18T11:11:27Z</time>
      </trkpt>
      <trkpt lat="50.01239" lon="5.36072">
        <ele>290</ele>
        <time>2018-02-18T11:11:38Z</time>
      </trkpt>
      <trkpt lat="50.01244" lon="5.36056">
        <ele>289</ele>
        <time>2018-02-18T11:11:48Z</time>
      </trkpt>
      <trkpt lat="50.01252" lon="5.36038">
        <ele>288</ele>
        <time>2018-02-18T11:11:59Z</time>
      </trkpt>
      <trkpt lat="50.0126" lon="5.3602">
        <ele>287</ele>
        <time>2018-02-18T11:12:10Z</time>
      </trkpt>
      <trkpt lat="50.01268" lon="5.36002">
        <ele>286</ele>
        <time>2018-02-18T11:12:21Z</time>
      </trkpt>
      <trkpt lat="50.01274" lon="5.35982">
        <ele>285</ele>
        <time>2018-02-18T11:12:32Z</time>
      </trkpt>
      <trkpt lat="50.01282" lon="5.35965">
        <ele>283</ele>
        <time>2018-02-18T11:12:42Z</time>
      </trkpt>
      <trkpt lat="50.01288" lon="5.35948">
        <ele>282</ele>
        <time>2018-02-18T11:12:52Z</time>
      </trkpt>
      <trkpt lat="50.01293" lon="5.35931">
        <ele>282</ele>
        <time>2018-02-18T11:13:02Z</time>
      </trkpt>
      <trkpt lat="50.01299" lon="5.35914">
        <ele>281</ele>
        <time>2018-02-18T11:13:13Z</time>
      </trkpt>
      <trkpt lat="50.01309" lon="5.359">
        <ele>281</ele>
        <time>2018-02-18T11:13:23Z</time>
      </trkpt>
      <trkpt lat="50.01322" lon="5.359">
        <ele>279</ele>
        <time>2018-02-18T11:13:34Z</time>
      </trkpt>
      <trkpt lat="50.01332" lon="5.35903">
        <ele>279</ele>
        <time>2018-02-18T11:13:44Z</time>
      </trkpt>
      <trkpt lat="50.01343" lon="5.35909">
        <ele>278</ele>
        <time>2018-02-18T11:13:54Z</time>
      </trkpt>
      <trkpt lat="50.01353" lon="5.3592">
        <ele>277</ele>
        <time>2018-02-18T11:14:05Z</time>
      </trkpt>
      <trkpt lat="50.01361" lon="5.35931">
        <ele>277</ele>
        <time>2018-02-18T11:14:16Z</time>
      </trkpt>
      <trkpt lat="50.0137" lon="5.35942">
        <ele>277</ele>
        <time>2018-02-18T11:14:27Z</time>
      </trkpt>
      <trkpt lat="50.01381" lon="5.35956">
        <ele>278</ele>
        <time>2018-02-18T11:14:38Z</time>
      </trkpt>
      <trkpt lat="50.01394" lon="5.35951">
        <ele>279</ele>
        <time>2018-02-18T11:14:49Z</time>
      </trkpt>
      <trkpt lat="50.01402" lon="5.35934">
        <ele>278</ele>
        <time>2018-02-18T11:15:00Z</time>
      </trkpt>
      <trkpt lat="50.01412" lon="5.35914">
        <ele>278</ele>
        <time>2018-02-18T11:15:11Z</time>
      </trkpt>
      <trkpt lat="50.01421" lon="5.35895">
        <ele>277</ele>
        <time>2018-02-18T11:15:22Z</time>
      </trkpt>
      <trkpt lat="50.01426" lon="5.35877">
        <ele>277</ele>
        <time>2018-02-18T11:15:33Z</time>
      </trkpt>
      <trkpt lat="50.01428" lon="5.35863">
        <ele>276</ele>
        <time>2018-02-18T11:15:44Z</time>
      </trkpt>
      <trkpt lat="50.01433" lon="5.35848">
        <ele>275</ele>
        <time>2018-02-18T11:15:54Z</time>
      </trkpt>
      <trkpt lat="50.0144" lon="5.3583">
        <ele>274</ele>
        <time>2018-02-18T11:16:05Z</time>
      </trkpt>
      <trkpt lat="50.01445" lon="5.35816">
        <ele>274</ele>
        <time>2018-02-18T11:16:16Z</time>
      </trkpt>
      <trkpt lat="50.01453" lon="5.35795">
        <ele>273</ele>
        <time>2018-02-18T11:16:27Z</time>
      </trkpt>
      <trkpt lat="50.01461" lon="5.35774">
        <ele>272</ele>
        <time>2018-02-18T11:16:37Z</time>
      </trkpt>
      <trkpt lat="50.01466" lon="5.35753">
        <ele>271</ele>
        <time>2018-02-18T11:16:48Z</time>
      </trkpt>
      <trkpt lat="50.01471" lon="5.3574">
        <ele>271</ele>
        <time>2018-02-18T11:16:58Z</time>
      </trkpt>
      <trkpt lat="50.01475" lon="5.35736">
        <ele>271</ele>
        <time>2018-02-18T11:17:09Z</time>
      </trkpt>
      <trkpt lat="50.01478" lon="5.35732">
        <ele>271</ele>
        <time>2018-02-18T11:17:19Z</time>
      </trkpt>
      <trkpt lat="50.01481" lon="5.35718">
        <ele>271</ele>
        <time>2018-02-18T11:17:30Z</time>
      </trkpt>
      <trkpt lat="50.01486" lon="5.35705">
        <ele>271</ele>
        <time>2018-02-18T11:17:40Z</time>
      </trkpt>
      <trkpt lat="50.01492" lon="5.35691">
        <ele>271</ele>
        <time>2018-02-18T11:17:51Z</time>
      </trkpt>
      <trkpt lat="50.01497" lon="5.35678">
        <ele>271</ele>
        <time>2018-02-18T11:18:01Z</time>
      </trkpt>
      <trkpt lat="50.01502" lon="5.35666">
        <ele>270</ele>
        <time>2018-02-18T11:18:12Z</time>
      </trkpt>
      <trkpt lat="50.01505" lon="5.35664">
        <ele>271</ele>
        <time>2018-02-18T11:18:24Z</time>
      </trkpt>
      <trkpt lat="50.01503" lon="5.35662">
        <ele>271</ele>
        <time>2018-02-18T11:18:34Z</time>
      </trkpt>
      <trkpt lat="50.01505" lon="5.35655">
        <ele>271</ele>
        <time>2018-02-18T11:18:44Z</time>
      </trkpt>
      <trkpt lat="50.01505" lon="5.35655">
        <ele>270</ele>
        <time>2018-02-18T11:18:54Z</time>
      </trkpt>
      <trkpt lat="50.01505" lon="5.35651">
        <ele>270</ele>
        <time>2018-02-18T11:19:05Z</time>
      </trkpt>
      <trkpt lat="50.01506" lon="5.35637">
        <ele>270</ele>
        <time>2018-02-18T11:19:16Z</time>
      </trkpt>
      <trkpt lat="50.01508" lon="5.35631">
        <ele>270</ele>
        <time>2018-02-18T11:19:27Z</time>
      </trkpt>
      <trkpt lat="50.01511" lon="5.35629">
        <ele>270</ele>
        <time>2018-02-18T11:19:38Z</time>
      </trkpt>
      <trkpt lat="50.01516" lon="5.35625">
        <ele>270</ele>
        <time>2018-02-18T11:19:48Z</time>
      </trkpt>
      <trkpt lat="50.01517" lon="5.35613">
        <ele>271</ele>
        <time>2018-02-18T11:19:59Z</time>
      </trkpt>
      <trkpt lat="50.01519" lon="5.356">
        <ele>272</ele>
        <time>2018-02-18T11:20:09Z</time>
      </trkpt>
      <trkpt lat="50.0152" lon="5.35584">
        <ele>273</ele>
        <time>2018-02-18T11:20:20Z</time>
      </trkpt>
      <trkpt lat="50.01524" lon="5.35572">
        <ele>274</ele>
        <time>2018-02-18T11:20:30Z</time>
      </trkpt>
      <trkpt lat="50.01532" lon="5.35566">
        <ele>275</ele>
        <time>2018-02-18T11:20:41Z</time>
      </trkpt>
      <trkpt lat="50.01537" lon="5.35569">
        <ele>277</ele>
        <time>2018-02-18T11:20:52Z</time>
      </trkpt>
      <trkpt lat="50.0154" lon="5.35576">
        <ele>278</ele>
        <time>2018-02-18T11:21:02Z</time>
      </trkpt>
      <trkpt lat="50.01545" lon="5.35588">
        <ele>279</ele>
        <time>2018-02-18T11:21:13Z</time>
      </trkpt>
      <trkpt lat="50.01549" lon="5.35597">
        <ele>280</ele>
        <time>2018-02-18T11:21:23Z</time>
      </trkpt>
      <trkpt lat="50.01553" lon="5.35607">
        <ele>282</ele>
        <time>2018-02-18T11:21:33Z</time>
      </trkpt>
      <trkpt lat="50.01557" lon="5.35616">
        <ele>283</ele>
        <time>2018-02-18T11:21:43Z</time>
      </trkpt>
      <trkpt lat="50.01564" lon="5.35625">
        <ele>284</ele>
        <time>2018-02-18T11:21:54Z</time>
      </trkpt>
      <trkpt lat="50.01568" lon="5.35635">
        <ele>285</ele>
        <time>2018-02-18T11:22:04Z</time>
      </trkpt>
      <trkpt lat="50.01572" lon="5.35644">
        <ele>287</ele>
        <time>2018-02-18T11:22:14Z</time>
      </trkpt>
      <trkpt lat="50.01578" lon="5.35654">
        <ele>289</ele>
        <time>2018-02-18T11:22:25Z</time>
      </trkpt>
      <trkpt lat="50.01583" lon="5.35663">
        <ele>290</ele>
        <time>2018-02-18T11:22:35Z</time>
      </trkpt>
      <trkpt lat="50.01589" lon="5.35674">
        <ele>292</ele>
        <time>2018-02-18T11:22:46Z</time>
      </trkpt>
      <trkpt lat="50.01593" lon="5.35684">
        <ele>293</ele>
        <time>2018-02-18T11:22:56Z</time>
      </trkpt>
      <trkpt lat="50.01598" lon="5.35693">
        <ele>294</ele>
        <time>2018-02-18T11:23:06Z</time>
      </trkpt>
      <trkpt lat="50.01605" lon="5.35702">
        <ele>295</ele>
        <time>2018-02-18T11:23:16Z</time>
      </trkpt>
      <trkpt lat="50.01611" lon="5.35712">
        <ele>297</ele>
        <time>2018-02-18T11:23:27Z</time>
      </trkpt>
      <trkpt lat="50.01618" lon="5.35722">
        <ele>298</ele>
        <time>2018-02-18T11:23:38Z</time>
      </trkpt>
      <trkpt lat="50.01625" lon="5.35732">
        <ele>300</ele>
        <time>2018-02-18T11:23:48Z</time>
      </trkpt>
      <trkpt lat="50.01632" lon="5.35744">
        <ele>300</ele>
        <time>2018-02-18T11:23:59Z</time>
      </trkpt>
      <trkpt lat="50.01641" lon="5.35754">
        <ele>302</ele>
        <time>2018-02-18T11:24:10Z</time>
      </trkpt>
      <trkpt lat="50.01649" lon="5.35762">
        <ele>303</ele>
        <time>2018-02-18T11:24:20Z</time>
      </trkpt>
      <trkpt lat="50.01658" lon="5.35769">
        <ele>304</ele>
        <time>2018-02-18T11:24:30Z</time>
      </trkpt>
      <trkpt lat="50.01667" lon="5.35778">
        <ele>305</ele>
        <time>2018-02-18T11:24:41Z</time>
      </trkpt>
      <trkpt lat="50.01678" lon="5.35784">
        <ele>306</ele>
        <time>2018-02-18T11:24:52Z</time>
      </trkpt>
      <trkpt lat="50.01688" lon="5.35789">
        <ele>307</ele>
        <time>2018-02-18T11:25:02Z</time>
      </trkpt>
      <trkpt lat="50.01698" lon="5.35795">
        <ele>308</ele>
        <time>2018-02-18T11:25:12Z</time>
      </trkpt>
      <trkpt lat="50.01709" lon="5.35801">
        <ele>308</ele>
        <time>2018-02-18T11:25:23Z</time>
      </trkpt>
      <trkpt lat="50.01717" lon="5.35806">
        <ele>310</ele>
        <time>2018-02-18T11:25:33Z</time>
      </trkpt>
      <trkpt lat="50.01728" lon="5.3581">
        <ele>311</ele>
        <time>2018-02-18T11:25:44Z</time>
      </trkpt>
      <trkpt lat="50.01738" lon="5.35814">
        <ele>312</ele>
        <time>2018-02-18T11:25:54Z</time>
      </trkpt>
      <trkpt lat="50.01746" lon="5.3582">
        <ele>312</ele>
        <time>2018-02-18T11:26:04Z</time>
      </trkpt>
      <trkpt lat="50.01757" lon="5.35826">
        <ele>313</ele>
        <time>2018-02-18T11:26:15Z</time>
      </trkpt>
      <trkpt lat="50.01765" lon="5.35835">
        <ele>313</ele>
        <time>2018-02-18T11:26:25Z</time>
      </trkpt>
      <trkpt lat="50.01773" lon="5.35843">
        <ele>314</ele>
        <time>2018-02-18T11:26:36Z</time>
      </trkpt>
      <trkpt lat="50.01782" lon="5.35854">
        <ele>315</ele>
        <time>2018-02-18T11:26:47Z</time>
      </trkpt>
      <trkpt lat="50.01789" lon="5.35863">
        <ele>316</ele>
        <time>2018-02-18T11:26:57Z</time>
      </trkpt>
      <trkpt lat="50.01796" lon="5.35873">
        <ele>317</ele>
        <time>2018-02-18T11:27:08Z</time>
      </trkpt>
      <trkpt lat="50.01802" lon="5.35881">
        <ele>318</ele>
        <time>2018-02-18T11:27:18Z</time>
      </trkpt>
      <trkpt lat="50.01804" lon="5.3589">
        <ele>318</ele>
        <time>2018-02-18T11:27:28Z</time>
      </trkpt>
      <trkpt lat="50.01806" lon="5.359">
        <ele>319</ele>
        <time>2018-02-18T11:27:38Z</time>
      </trkpt>
      <trkpt lat="50.0181" lon="5.3591">
        <ele>320</ele>
        <time>2018-02-18T11:27:48Z</time>
      </trkpt>
      <trkpt lat="50.01818" lon="5.35919">
        <ele>320</ele>
        <time>2018-02-18T11:27:59Z</time>
      </trkpt>
      <trkpt lat="50.01829" lon="5.35923">
        <ele>321</ele>
        <time>2018-02-18T11:28:09Z</time>
      </trkpt>
      <trkpt lat="50.0184" lon="5.35928">
        <ele>321</ele>
        <time>2018-02-18T11:28:20Z</time>
      </trkpt>
      <trkpt lat="50.0185" lon="5.35935">
        <ele>321</ele>
        <time>2018-02-18T11:28:30Z</time>
      </trkpt>
      <trkpt lat="50.01857" lon="5.35944">
        <ele>321</ele>
        <time>2018-02-18T11:28:40Z</time>
      </trkpt>
      <trkpt lat="50.01866" lon="5.35954">
        <ele>322</ele>
        <time>2018-02-18T11:28:51Z</time>
      </trkpt>
      <trkpt lat="50.01872" lon="5.35965">
        <ele>323</ele>
        <time>2018-02-18T11:29:01Z</time>
      </trkpt>
      <trkpt lat="50.01875" lon="5.35978">
        <ele>323</ele>
        <time>2018-02-18T11:29:12Z</time>
      </trkpt>
      <trkpt lat="50.01881" lon="5.35991">
        <ele>324</ele>
        <time>2018-02-18T11:29:23Z</time>
      </trkpt>
      <trkpt lat="50.01888" lon="5.36004">
        <ele>324</ele>
        <time>2018-02-18T11:29:33Z</time>
      </trkpt>
      <trkpt lat="50.01896" lon="5.36015">
        <ele>325</ele>
        <time>2018-02-18T11:29:43Z</time>
      </trkpt>
      <trkpt lat="50.01903" lon="5.36028">
        <ele>326</ele>
        <time>2018-02-18T11:29:54Z</time>
      </trkpt>
      <trkpt lat="50.0191" lon="5.3604">
        <ele>326</ele>
        <time>2018-02-18T11:30:05Z</time>
      </trkpt>
      <trkpt lat="50.01918" lon="5.36049">
        <ele>327</ele>
        <time>2018-02-18T11:30:16Z</time>
      </trkpt>
      <trkpt lat="50.01926" lon="5.3606">
        <ele>328</ele>
        <time>2018-02-18T11:30:27Z</time>
      </trkpt>
      <trkpt lat="50.01933" lon="5.36072">
        <ele>328</ele>
        <time>2018-02-18T11:30:37Z</time>
      </trkpt>
      <trkpt lat="50.01942" lon="5.36084">
        <ele>328</ele>
        <time>2018-02-18T11:30:48Z</time>
      </trkpt>
      <trkpt lat="50.01949" lon="5.36095">
        <ele>329</ele>
        <time>2018-02-18T11:30:58Z</time>
      </trkpt>
      <trkpt lat="50.01952" lon="5.36099">
        <ele>328</ele>
        <time>2018-02-18T11:31:08Z</time>
      </trkpt>
      <trkpt lat="50.01957" lon="5.36106">
        <ele>329</ele>
        <time>2018-02-18T11:31:19Z</time>
      </trkpt>
      <trkpt lat="50.01963" lon="5.36116">
        <ele>329</ele>
        <time>2018-02-18T11:31:29Z</time>
      </trkpt>
      <trkpt lat="50.01968" lon="5.36123">
        <ele>330</ele>
        <time>2018-02-18T11:31:30Z</time>
      </trkpt>
    </trkseg>
  </trk>
</gpx>